createdAt,value
2023-01-25T00:00:20.022Z,61.400002
2023-01-25T00:01:28.591Z,87.5
2023-01-25T00:02:37.044Z,87.5
2023-01-25T00:03:45.301Z,87.5
2023-01-25T00:04:53.876Z,108.9
2023-01-25T00:06:02.233Z,108.9
2023-01-25T00:07:10.631Z,108.9
2023-01-25T00:08:19.157Z,128.69999
2023-01-25T00:09:27.541Z,128.69999
2023-01-25T00:10:35.894Z,128.69999
2023-01-25T00:11:44.484Z,200.3
2023-01-25T00:12:52.850Z,200.3
2023-01-25T00:14:01.235Z,200.3
2023-01-25T00:15:10.169Z,117.5
2023-01-25T00:16:18.167Z,117.5
2023-01-25T00:17:26.522Z,117.5
2023-01-25T00:18:35.111Z,97
2023-01-25T00:19:43.464Z,97
2023-01-25T00:20:51.837Z,97
2023-01-25T00:22:00.416Z,220.89999
2023-01-25T00:23:08.797Z,220.89999
2023-01-25T00:24:17.217Z,220.89999
2023-01-25T00:25:25.695Z,164.69999
2023-01-25T00:26:34.056Z,164.69999
2023-01-25T00:27:42.415Z,164.69999
2023-01-25T00:28:50.997Z,110.59999
2023-01-25T00:29:59.361Z,110.59999
2023-01-25T00:31:07.728Z,110.59999
2023-01-25T00:32:16.414Z,138.5
2023-01-25T00:33:24.642Z,138.5
2023-01-25T00:34:33.026Z,138.5
2023-01-25T00:35:41.600Z,75.900002
2023-01-25T00:36:49.944Z,75.900002
2023-01-25T00:37:58.320Z,75.900002
2023-01-25T00:39:06.939Z,84.699997
2023-01-25T00:40:15.296Z,84.699997
2023-01-25T00:41:23.657Z,84.699997
2023-01-25T00:42:32.224Z,99.400002
2023-01-25T00:43:40.598Z,99.400002
2023-01-25T00:44:48.969Z,99.400002
2023-01-25T00:45:57.593Z,100
2023-01-25T00:47:05.923Z,100
2023-01-25T00:48:14.286Z,100
2023-01-25T00:49:22.862Z,75.300003
2023-01-25T00:50:31.242Z,75.300003
2023-01-25T00:51:39.602Z,75.300003
2023-01-25T00:52:48.163Z,140.69999
2023-01-25T00:53:56.533Z,140.69999
2023-01-25T00:55:05.051Z,140.69999
2023-01-25T00:56:13.464Z,126.5
2023-01-25T00:57:21.826Z,126.5
2023-01-25T00:58:30.179Z,126.5
2023-01-25T00:59:38.762Z,79.5
2023-01-25T01:00:47.151Z,79.5
2023-01-25T01:01:55.496Z,79.5
2023-01-25T01:03:04.059Z,86.699997
2023-01-25T01:04:12.454Z,86.699997
2023-01-25T01:05:20.782Z,86.699997
2023-01-25T01:06:29.356Z,95.099998
2023-01-25T01:07:37.701Z,95.099998
2023-01-25T01:08:46.081Z,95.099998
2023-01-25T01:09:54.655Z,116.69999
2023-01-25T01:11:03.056Z,116.69999
2023-01-25T01:12:11.382Z,116.69999
2023-01-25T01:13:19.968Z,81.800003
2023-01-25T01:14:28.332Z,81.800003
2023-01-25T01:15:36.684Z,81.800003
2023-01-25T01:16:45.361Z,100.8
2023-01-25T01:17:53.612Z,100.8
2023-01-25T01:19:01.998Z,100.8
2023-01-25T01:20:10.551Z,108.9
2023-01-25T01:21:18.920Z,108.9
2023-01-25T01:22:27.274Z,108.9
2023-01-25T01:23:35.869Z,111.69999
2023-01-25T01:24:44.217Z,111.69999
2023-01-25T01:25:52.566Z,111.69999
2023-01-25T01:27:01.171Z,150.3
2023-01-25T01:28:09.492Z,150.3
2023-01-25T01:29:17.867Z,150.3
2023-01-25T01:30:27.247Z,183.5
2023-01-25T01:31:35.751Z,183.5
2023-01-25T01:32:44.157Z,183.5
2023-01-25T01:33:52.603Z,103.4
2023-01-25T01:35:00.984Z,103.4
2023-01-25T01:36:09.345Z,103.4
2023-01-25T01:37:17.920Z,61.700001
2023-01-25T01:38:26.298Z,61.700001
2023-01-25T01:39:34.660Z,61.700001
2023-01-25T01:40:43.225Z,62.200001
2023-01-25T01:41:51.618Z,62.200001
2023-01-25T01:42:59.981Z,62.200001
2023-01-25T01:44:08.524Z,130.3
2023-01-25T01:45:16.894Z,130.3
2023-01-25T01:46:25.251Z,130.3
2023-01-25T01:47:33.801Z,126.69999
2023-01-25T01:48:42.156Z,126.69999
2023-01-25T01:49:50.501Z,126.69999
2023-01-25T01:50:59.054Z,97.5
2023-01-25T01:52:07.417Z,97.5
2023-01-25T01:53:15.756Z,97.5
2023-01-25T01:54:24.337Z,181.89999
2023-01-25T01:55:32.682Z,181.89999
2023-01-25T01:56:41.033Z,181.89999
2023-01-25T01:57:49.618Z,92.400002
2023-01-25T01:58:58.018Z,92.400002
2023-01-25T02:00:06.348Z,92.400002
2023-01-25T02:01:14.998Z,130.39999
2023-01-25T02:02:23.314Z,130.39999
2023-01-25T02:03:31.644Z,130.39999
2023-01-25T02:04:40.209Z,95.199997
2023-01-25T02:05:48.560Z,95.199997
2023-01-25T02:06:56.911Z,95.199997
2023-01-25T02:08:05.472Z,37.900002
2023-01-25T02:09:13.818Z,37.900002
2023-01-25T02:10:22.180Z,37.900002
2023-01-25T02:11:30.729Z,53.200001
2023-01-25T02:12:39.079Z,53.200001
2023-01-25T02:13:47.449Z,53.200001
2023-01-25T02:14:56.046Z,48.5
2023-01-25T02:16:04.436Z,48.5
2023-01-25T02:17:12.726Z,48.5
2023-01-25T02:18:21.302Z,57.5
2023-01-25T02:19:29.666Z,57.5
2023-01-25T02:20:38.058Z,57.5
2023-01-25T02:21:46.578Z,94.699997
2023-01-25T02:22:54.933Z,94.699997
2023-01-25T02:24:03.324Z,94.699997
2023-01-25T02:25:11.882Z,99.800003
2023-01-25T02:26:20.234Z,99.800003
2023-01-25T02:27:28.589Z,99.800003
2023-01-25T02:28:37.167Z,89.199997
2023-01-25T02:29:47.244Z,89.199997
2023-01-25T02:30:55.674Z,89.199997
2023-01-25T02:32:04.214Z,61.900002
2023-01-25T02:33:12.528Z,61.900002
2023-01-25T02:34:20.878Z,61.900002
2023-01-25T02:35:29.424Z,140.89999
2023-01-25T02:36:37.757Z,140.89999
2023-01-25T02:37:46.126Z,140.89999
2023-01-25T02:38:54.684Z,51.799999
2023-01-25T02:40:03.053Z,51.799999
2023-01-25T02:41:11.395Z,51.799999
2023-01-25T02:42:19.947Z,79.800003
2023-01-25T02:43:28.295Z,79.800003
2023-01-25T02:44:36.659Z,79.800003
2023-01-25T02:45:45.213Z,185
2023-01-25T02:46:53.579Z,185
2023-01-25T02:48:01.887Z,185
2023-01-25T02:49:10.458Z,134.19999
2023-01-25T02:50:18.799Z,134.19999
2023-01-25T02:51:27.153Z,134.19999
2023-01-25T02:52:35.686Z,162.8
2023-01-25T02:53:44.040Z,162.8
2023-01-25T02:54:52.394Z,162.8
2023-01-25T02:56:00.969Z,106.69999
2023-01-25T02:57:09.308Z,106.69999
2023-01-25T02:58:17.648Z,106.69999
2023-01-25T02:59:26.209Z,89.199997
2023-01-25T03:00:34.562Z,89.199997
2023-01-25T03:01:43.004Z,89.199997
2023-01-25T03:02:51.551Z,79.199997
2023-01-25T03:03:59.840Z,79.199997
2023-01-25T03:05:08.486Z,79.199997
2023-01-25T03:06:16.745Z,139.89999
2023-01-25T03:07:25.093Z,139.89999
2023-01-25T03:08:33.433Z,139.89999
2023-01-25T03:09:41.993Z,54.799999
2023-01-25T03:10:50.336Z,54.799999
2023-01-25T03:11:58.674Z,54.799999
2023-01-25T03:13:07.247Z,84.199997
2023-01-25T03:14:15.605Z,84.199997
2023-01-25T03:15:23.946Z,84.199997
2023-01-25T03:16:32.556Z,51.5
2023-01-25T03:17:40.856Z,51.5
2023-01-25T03:18:49.228Z,51.5
2023-01-25T03:19:57.764Z,61.799999
2023-01-25T03:21:06.114Z,61.799999
2023-01-25T03:22:14.463Z,61.799999
2023-01-25T03:23:23.023Z,63.299999
2023-01-25T03:24:31.378Z,63.299999
2023-01-25T03:25:39.714Z,63.299999
2023-01-25T03:26:48.273Z,96.300003
2023-01-25T03:27:56.623Z,96.300003
2023-01-25T03:29:04.986Z,96.300003
2023-01-25T03:30:13.543Z,120.69999
2023-01-25T03:31:22.009Z,120.69999
2023-01-25T03:32:30.267Z,120.69999
2023-01-25T03:33:38.813Z,102.8
2023-01-25T03:34:47.195Z,102.8
2023-01-25T03:35:55.552Z,102.8
2023-01-25T03:37:04.085Z,102.09999
2023-01-25T03:38:12.434Z,102.09999
2023-01-25T03:39:20.804Z,102.09999
2023-01-25T03:40:29.360Z,77.800003
2023-01-25T03:41:37.700Z,77.800003
2023-01-25T03:42:46.068Z,77.800003
2023-01-25T03:43:54.645Z,101.8
2023-01-25T03:45:02.990Z,101.8
2023-01-25T03:46:11.360Z,101.8
2023-01-25T03:47:19.912Z,76.900002
2023-01-25T03:48:28.261Z,76.900002
2023-01-25T03:49:36.617Z,76.900002
2023-01-25T03:50:45.213Z,61.599998
2023-01-25T03:51:53.550Z,61.599998
2023-01-25T03:53:01.924Z,61.599998
2023-01-25T03:54:10.505Z,36.799999
2023-01-25T03:55:18.836Z,36.799999
2023-01-25T03:56:27.207Z,36.799999
2023-01-25T03:57:35.793Z,85.800003
2023-01-25T03:58:44.125Z,85.800003
2023-01-25T03:59:52.503Z,85.800003
2023-01-25T04:01:01.160Z,91.5
2023-01-25T04:02:09.488Z,91.5
2023-01-25T04:03:17.800Z,91.5
2023-01-25T04:04:26.373Z,62.200001
2023-01-25T04:05:34.739Z,62.200001
2023-01-25T04:06:43.135Z,62.200001
2023-01-25T04:07:51.681Z,44.5
2023-01-25T04:09:00.035Z,44.5
2023-01-25T04:10:08.394Z,44.5
2023-01-25T04:11:16.977Z,85.5
2023-01-25T04:12:25.326Z,85.5
2023-01-25T04:13:33.670Z,85.5
2023-01-25T04:14:44.496Z,51.5
2023-01-25T04:15:50.616Z,51.5
2023-01-25T04:16:58.988Z,51.5
2023-01-25T04:18:07.579Z,36.799999
2023-01-25T04:19:15.944Z,36.799999
2023-01-25T04:20:24.309Z,36.799999
2023-01-25T04:21:32.877Z,43.299999
2023-01-25T04:22:41.243Z,43.299999
2023-01-25T04:23:49.624Z,43.299999
2023-01-25T04:24:58.165Z,25.4
2023-01-25T04:26:06.524Z,25.4
2023-01-25T04:27:14.868Z,25.4
2023-01-25T04:28:23.437Z,31.700001
2023-01-25T04:29:40.343Z,31.700001
2023-01-25T04:30:40.168Z,31.700001
2023-01-25T04:31:48.812Z,74
2023-01-25T04:32:57.097Z,74
2023-01-25T04:34:05.468Z,74
2023-01-25T04:35:14.048Z,61.099998
2023-01-25T04:36:22.383Z,61.099998
2023-01-25T04:37:30.767Z,61.099998
2023-01-25T04:38:39.557Z,63
2023-01-25T04:39:47.939Z,63
2023-01-25T04:41:13.985Z,63
2023-01-25T04:42:25.003Z,66.5
2023-01-25T04:43:33.345Z,66.5
2023-01-25T04:44:41.712Z,66.5
2023-01-25T04:45:50.317Z,41.599998
2023-01-25T04:46:58.618Z,41.599998
2023-01-25T04:48:06.958Z,41.599998
2023-01-25T04:49:15.555Z,200.5
2023-01-25T04:50:23.895Z,200.5
2023-01-25T04:51:32.253Z,200.5
2023-01-25T04:52:40.822Z,61.599998
2023-01-25T04:53:49.213Z,61.599998
2023-01-25T04:54:57.531Z,61.599998
2023-01-25T04:56:06.090Z,128.69999
2023-01-25T04:57:14.443Z,128.69999
2023-01-25T04:58:22.801Z,128.69999
2023-01-25T04:59:31.342Z,74.900002
2023-01-25T05:00:39.689Z,74.900002
2023-01-25T05:01:48.046Z,74.900002
2023-01-25T05:02:56.586Z,32.099998
2023-01-25T05:04:04.940Z,32.099998
2023-01-25T05:05:13.278Z,32.099998
2023-01-25T05:06:21.822Z,62.099998
2023-01-25T05:07:30.172Z,62.099998
2023-01-25T05:08:38.520Z,62.099998
2023-01-25T05:09:47.102Z,50
2023-01-25T05:10:55.436Z,50
2023-01-25T05:12:03.764Z,50
2023-01-25T05:13:12.311Z,34.099998
2023-01-25T05:14:20.671Z,34.099998
2023-01-25T05:15:29.017Z,34.099998
2023-01-25T05:16:37.691Z,30
2023-01-25T05:17:45.921Z,30
2023-01-25T05:18:54.278Z,30
2023-01-25T05:20:02.833Z,40.599998
2023-01-25T05:21:11.169Z,40.599998
2023-01-25T05:22:19.533Z,40.599998
2023-01-25T05:23:28.079Z,79.699997
2023-01-25T05:24:36.445Z,79.699997
2023-01-25T05:25:44.902Z,79.699997
2023-01-25T05:26:53.432Z,63.400002
2023-01-25T05:28:01.780Z,63.400002
2023-01-25T05:29:10.163Z,63.400002
2023-01-25T05:30:18.727Z,84.300003
2023-01-25T05:31:27.153Z,84.300003
2023-01-25T05:32:42.259Z,84.300003
2023-01-25T05:33:50.818Z,43.599998
2023-01-25T05:35:00.817Z,43.599998
2023-01-25T05:36:07.523Z,43.599998
2023-01-25T05:37:16.086Z,36.599998
2023-01-25T05:38:24.428Z,36.599998
2023-01-25T05:39:32.782Z,36.599998
2023-01-25T05:40:41.332Z,38.099998
2023-01-25T05:41:49.694Z,38.099998
2023-01-25T05:42:58.029Z,38.099998
2023-01-25T05:44:06.577Z,29.299999
2023-01-25T05:45:14.911Z,29.299999
2023-01-25T05:46:23.301Z,29.299999
2023-01-25T05:47:31.809Z,32.700001
2023-01-25T05:48:40.185Z,32.700001
2023-01-25T05:49:48.504Z,32.700001
2023-01-25T05:50:57.047Z,29.4
2023-01-25T05:52:05.388Z,29.4
2023-01-25T05:53:13.735Z,29.4
2023-01-25T05:54:22.285Z,34.299999
2023-01-25T05:55:30.640Z,34.299999
2023-01-25T05:56:38.988Z,34.299999
2023-01-25T05:57:47.570Z,33.5
2023-01-25T05:58:55.899Z,33.5
2023-01-25T06:00:04.237Z,33.5
2023-01-25T06:01:12.770Z,36.799999
2023-01-25T06:02:21.253Z,36.799999
2023-01-25T06:03:29.611Z,36.799999
2023-01-25T06:04:38.019Z,37.900002
2023-01-25T06:05:46.366Z,37.900002
2023-01-25T06:06:54.726Z,37.900002
2023-01-25T06:08:03.269Z,39.799999
2023-01-25T06:09:11.623Z,39.799999
2023-01-25T06:10:19.976Z,39.799999
2023-01-25T06:11:28.524Z,29
2023-01-25T06:12:36.883Z,29
2023-01-25T06:13:45.275Z,29
2023-01-25T06:14:53.821Z,38
2023-01-25T06:16:02.143Z,38
2023-01-25T06:17:10.477Z,38
2023-01-25T06:18:19.065Z,37.400002
2023-01-25T06:19:27.425Z,37.400002
2023-01-25T06:20:35.760Z,37.400002
2023-01-25T06:21:44.363Z,35.200001
2023-01-25T06:22:52.717Z,35.200001
2023-01-25T06:24:01.143Z,35.200001
2023-01-25T06:25:09.979Z,32.200001
2023-01-25T06:26:18.065Z,32.200001
2023-01-25T06:27:26.428Z,32.200001
2023-01-25T06:28:34.992Z,38.700001
2023-01-25T06:29:43.386Z,38.700001
2023-01-25T06:30:51.750Z,38.700001
2023-01-25T06:32:00.287Z,33.900002
2023-01-25T06:33:08.602Z,33.900002
2023-01-25T06:34:16.965Z,33.900002
2023-01-25T06:35:25.528Z,37.5
2023-01-25T06:36:33.867Z,37.5
2023-01-25T06:37:42.206Z,37.5
2023-01-25T06:38:50.836Z,30.799999
2023-01-25T06:39:59.216Z,30.799999
2023-01-25T06:41:07.563Z,30.799999
2023-01-25T06:42:16.162Z,32.200001
2023-01-25T06:43:24.539Z,32.200001
2023-01-25T06:44:32.996Z,32.200001
2023-01-25T06:45:41.542Z,42
2023-01-25T06:46:49.925Z,42
2023-01-25T06:47:58.266Z,42
2023-01-25T06:49:06.830Z,40.099998
2023-01-25T06:50:15.198Z,40.099998
2023-01-25T06:51:23.579Z,40.099998
2023-01-25T06:52:32.119Z,29.799999
2023-01-25T06:53:40.468Z,29.799999
2023-01-25T06:54:48.844Z,29.799999
2023-01-25T06:55:57.391Z,33.400002
2023-01-25T06:57:05.733Z,33.400002
2023-01-25T06:58:14.090Z,33.400002
2023-01-25T06:59:22.682Z,38.099998
2023-01-25T07:00:31.029Z,38.099998
2023-01-25T07:01:39.492Z,38.099998
2023-01-25T07:02:48.061Z,38.5
2023-01-25T07:03:56.322Z,38.5
2023-01-25T07:05:04.642Z,38.5
2023-01-25T07:06:13.201Z,41.400002
2023-01-25T07:07:21.554Z,41.400002
2023-01-25T07:08:29.896Z,41.400002
2023-01-25T07:09:38.462Z,44
2023-01-25T07:10:46.817Z,44
2023-01-25T07:11:55.172Z,44
2023-01-25T07:13:03.734Z,44.299999
2023-01-25T07:14:12.095Z,44.299999
2023-01-25T07:15:20.454Z,44.299999
2023-01-25T07:16:29.019Z,37.599998
2023-01-25T07:17:37.466Z,37.599998
2023-01-25T07:18:45.761Z,37.599998
2023-01-25T07:19:54.378Z,35.799999
2023-01-25T07:21:02.790Z,35.799999
2023-01-25T07:22:11.139Z,35.799999
2023-01-25T07:23:19.707Z,36
2023-01-25T07:24:28.087Z,36
2023-01-25T07:25:36.434Z,36
2023-01-25T07:26:44.973Z,34.5
2023-01-25T07:27:53.364Z,34.5
2023-01-25T07:29:01.731Z,34.5
2023-01-25T07:30:10.314Z,37
2023-01-25T07:31:18.683Z,37
2023-01-25T07:32:27.022Z,37
2023-01-25T07:33:35.583Z,34.200001
2023-01-25T07:34:43.976Z,34.200001
2023-01-25T07:35:52.314Z,34.200001
2023-01-25T07:37:00.899Z,39.700001
2023-01-25T07:38:09.237Z,39.700001
2023-01-25T07:39:17.654Z,39.700001
2023-01-25T07:40:26.238Z,35
2023-01-25T07:41:34.585Z,35
2023-01-25T07:42:42.962Z,35
2023-01-25T07:43:51.544Z,41.200001
2023-01-25T07:44:59.894Z,41.200001
2023-01-25T07:46:08.277Z,41.200001
2023-01-25T07:47:16.840Z,40.799999
2023-01-25T07:48:25.201Z,40.799999
2023-01-25T07:49:33.625Z,40.799999
2023-01-25T07:50:42.199Z,35.799999
2023-01-25T07:51:50.559Z,35.799999
2023-01-25T07:52:58.965Z,35.799999
2023-01-25T07:54:07.517Z,56.299999
2023-01-25T07:55:15.867Z,56.299999
2023-01-25T07:56:24.222Z,56.299999
2023-01-25T07:57:32.822Z,44.599998
2023-01-25T07:58:41.214Z,44.599998
2023-01-25T07:59:49.587Z,44.599998
2023-01-25T08:00:58.176Z,41.200001
2023-01-25T08:02:06.526Z,41.200001
2023-01-25T08:03:14.898Z,41.200001
2023-01-25T08:04:23.513Z,41.5
2023-01-25T08:05:31.898Z,41.5
2023-01-25T08:06:40.231Z,41.5
2023-01-25T08:07:48.834Z,39.900002
2023-01-25T08:08:57.214Z,39.900002
2023-01-25T08:10:05.577Z,39.900002
2023-01-25T08:11:14.138Z,51.400002
2023-01-25T08:12:22.472Z,51.400002
2023-01-25T08:13:30.860Z,51.400002
2023-01-25T08:14:39.414Z,52.099998
2023-01-25T08:15:47.760Z,52.099998
2023-01-25T08:16:56.120Z,52.099998
2023-01-25T08:18:04.681Z,64.900002
2023-01-25T08:19:13.027Z,64.900002
2023-01-25T08:20:21.405Z,64.900002
2023-01-25T08:21:30.178Z,56.099998
2023-01-25T08:22:38.347Z,56.099998
2023-01-25T08:23:46.770Z,56.099998
2023-01-25T08:24:55.246Z,46
2023-01-25T08:26:03.618Z,46
2023-01-25T08:27:12.057Z,46
2023-01-25T08:28:20.651Z,74.699997
2023-01-25T08:29:29.034Z,74.699997
2023-01-25T08:30:41.178Z,74.699997
2023-01-25T08:31:45.978Z,49.900002
2023-01-25T08:32:54.272Z,49.900002
2023-01-25T08:34:02.637Z,49.900002
2023-01-25T08:35:11.597Z,51.599998
2023-01-25T08:36:19.600Z,51.599998
2023-01-25T08:37:27.963Z,51.599998
2023-01-25T08:38:36.518Z,46.700001
2023-01-25T08:39:44.902Z,46.700001
2023-01-25T08:40:53.256Z,46.700001
2023-01-25T08:42:01.834Z,41.099998
2023-01-25T08:43:10.823Z,41.099998
2023-01-25T08:44:19.201Z,41.099998
2023-01-25T08:45:27.760Z,63.700001
2023-01-25T08:46:36.094Z,63.700001
2023-01-25T08:47:44.443Z,63.700001
2023-01-25T08:48:53.024Z,68.900002
2023-01-25T08:50:01.470Z,68.900002
2023-01-25T08:51:09.882Z,68.900002
2023-01-25T08:52:18.985Z,44.5
2023-01-25T08:53:26.791Z,44.5
2023-01-25T08:54:35.121Z,44.5
2023-01-25T08:55:43.699Z,43.900002
2023-01-25T08:56:52.058Z,43.900002
2023-01-25T08:58:00.443Z,43.900002
2023-01-25T08:59:08.994Z,43.299999
2023-01-25T09:00:17.361Z,43.299999
2023-01-25T09:01:25.719Z,43.299999
2023-01-25T09:02:34.276Z,46.200001
2023-01-25T09:03:42.695Z,46.200001
2023-01-25T09:04:50.982Z,46.200001
2023-01-25T09:05:59.543Z,47.400002
2023-01-25T09:07:07.900Z,47.400002
2023-01-25T09:08:16.251Z,47.400002
2023-01-25T09:09:24.907Z,44.599998
2023-01-25T09:10:33.238Z,44.599998
2023-01-25T09:11:41.665Z,44.599998
2023-01-25T09:12:50.262Z,39.299999
2023-01-25T09:13:58.640Z,39.299999
2023-01-25T09:15:07.353Z,39.299999
2023-01-25T09:16:15.584Z,41.200001
2023-01-25T09:17:23.949Z,41.200001
2023-01-25T09:18:32.497Z,41.200001
2023-01-25T09:19:41.071Z,37.900002
2023-01-25T09:20:49.413Z,37.900002
2023-01-25T09:21:57.784Z,37.900002
2023-01-25T09:23:06.328Z,42.299999
2023-01-25T09:24:14.706Z,42.299999
2023-01-25T09:25:23.044Z,42.299999
2023-01-25T09:26:32.252Z,34.799999
2023-01-25T09:27:39.951Z,34.799999
2023-01-25T09:28:48.305Z,34.799999
2023-01-25T09:30:01.657Z,32.599998
2023-01-25T09:31:20.242Z,32.599998
2023-01-25T09:32:13.592Z,32.599998
2023-01-25T09:33:22.120Z,30.799999
2023-01-25T09:34:30.479Z,30.799999
2023-01-25T09:35:39.066Z,30.799999
2023-01-25T09:36:47.661Z,37.799999
2023-01-25T09:37:56.023Z,37.799999
2023-01-25T09:39:04.359Z,37.799999
2023-01-25T09:40:12.923Z,37.599998
2023-01-25T09:41:21.291Z,37.599998
2023-01-25T09:42:29.619Z,37.599998
2023-01-25T09:43:38.181Z,34
2023-01-25T09:44:46.754Z,34
2023-01-25T09:45:55.108Z,34
2023-01-25T09:47:03.655Z,37.599998
2023-01-25T09:48:12.016Z,37.599998
2023-01-25T09:49:20.357Z,37.599998
2023-01-25T09:50:28.926Z,31.799999
2023-01-25T09:51:37.267Z,31.799999
2023-01-25T09:52:45.596Z,31.799999
2023-01-25T09:53:54.190Z,28.6
2023-01-25T09:55:02.539Z,28.6
2023-01-25T09:56:10.891Z,28.6
2023-01-25T09:57:19.467Z,28.9
2023-01-25T09:58:27.799Z,28.9
2023-01-25T09:59:36.138Z,28.9
2023-01-25T10:00:44.693Z,28.700001
2023-01-25T10:01:53.112Z,28.700001
2023-01-25T10:03:01.435Z,28.700001
2023-01-25T10:04:09.927Z,28.799999
2023-01-25T10:05:18.277Z,28.799999
2023-01-25T10:06:26.660Z,28.799999
2023-01-25T10:07:35.180Z,24.799999
2023-01-25T10:08:43.538Z,24.799999
2023-01-25T10:09:51.887Z,24.799999
2023-01-25T10:11:00.433Z,26.4
2023-01-25T10:12:08.785Z,26.4
2023-01-25T10:13:17.341Z,26.4
2023-01-25T10:14:25.689Z,27.700001
2023-01-25T10:15:34.029Z,27.700001
2023-01-25T10:16:42.393Z,27.700001
2023-01-25T10:17:50.936Z,28.5
2023-01-25T10:18:59.276Z,28.5
2023-01-25T10:20:08.077Z,28.5
2023-01-25T10:21:16.219Z,29
2023-01-25T10:22:24.584Z,29
2023-01-25T10:23:32.927Z,29
2023-01-25T10:24:41.485Z,23.5
2023-01-25T10:25:49.830Z,23.5
2023-01-25T10:26:58.170Z,23.5
2023-01-25T10:28:06.712Z,29.700001
2023-01-25T10:29:15.077Z,29.700001
2023-01-25T10:30:23.415Z,29.700001
2023-01-25T10:31:32.035Z,25.6
2023-01-25T10:32:47.781Z,25.6
2023-01-25T10:33:48.686Z,25.6
2023-01-25T10:34:57.630Z,22.6
2023-01-25T10:36:05.563Z,22.6
2023-01-25T10:37:13.905Z,22.6
2023-01-25T10:38:22.471Z,20.4
2023-01-25T10:39:30.826Z,20.4
2023-01-25T10:40:39.186Z,20.4
2023-01-25T10:41:48.319Z,20.799999
2023-01-25T10:42:56.651Z,20.799999
2023-01-25T10:44:05.001Z,20.799999
2023-01-25T10:45:13.597Z,23.299999
2023-01-25T10:46:21.907Z,23.299999
2023-01-25T10:47:30.244Z,23.299999
2023-01-25T10:48:38.793Z,22.1
2023-01-25T10:49:47.254Z,22.1
2023-01-25T10:50:55.496Z,22.1
2023-01-25T10:52:04.264Z,25.700001
2023-01-25T10:53:12.597Z,25.700001
2023-01-25T10:54:20.935Z,25.700001
2023-01-25T10:55:29.499Z,26
2023-01-25T10:56:37.857Z,26
2023-01-25T10:57:46.260Z,26
2023-01-25T10:58:54.821Z,24.4
2023-01-25T11:00:03.179Z,24.4
2023-01-25T11:01:11.538Z,24.4
2023-01-25T11:02:20.077Z,29.5
2023-01-25T11:03:28.995Z,29.5
2023-01-25T11:04:37.344Z,29.5
2023-01-25T11:05:45.898Z,30.799999
2023-01-25T11:06:54.250Z,30.799999
2023-01-25T11:08:02.595Z,30.799999
2023-01-25T11:09:11.171Z,27.6
2023-01-25T11:10:19.529Z,27.6
2023-01-25T11:11:27.910Z,27.6
2023-01-25T11:12:36.475Z,19.9
2023-01-25T11:13:44.806Z,19.9
2023-01-25T11:14:53.147Z,19.9
2023-01-25T11:16:01.943Z,28.1
2023-01-25T11:17:10.065Z,28.1
2023-01-25T11:18:18.437Z,28.1
2023-01-25T11:19:27.131Z,27
2023-01-25T11:20:35.463Z,27
2023-01-25T11:21:43.795Z,27
2023-01-25T11:22:52.367Z,21.200001
2023-01-25T11:24:00.756Z,21.200001
2023-01-25T11:25:11.587Z,21.200001
2023-01-25T11:26:20.141Z,18.6
2023-01-25T11:27:28.474Z,18.6
2023-01-25T11:28:36.840Z,18.6
2023-01-25T11:29:45.419Z,21.700001
2023-01-25T11:30:53.869Z,21.700001
2023-01-25T11:32:02.110Z,21.700001
2023-01-25T11:33:10.716Z,24.4
2023-01-25T11:34:19.064Z,24.4
2023-01-25T11:35:27.422Z,24.4
2023-01-25T11:36:36.103Z,21.200001
2023-01-25T11:37:44.450Z,21.200001
2023-01-25T11:38:52.793Z,21.200001
2023-01-25T11:40:01.366Z,22.9
2023-01-25T11:41:09.696Z,22.9
2023-01-25T11:42:18.040Z,22.9
2023-01-25T11:43:26.598Z,22.4
2023-01-25T11:44:34.975Z,22.4
2023-01-25T11:45:43.335Z,22.4
2023-01-25T11:46:51.948Z,21.700001
2023-01-25T11:48:00.282Z,21.700001
2023-01-25T11:49:08.641Z,21.700001
2023-01-25T11:50:17.173Z,20.6
2023-01-25T11:51:25.536Z,20.6
2023-01-25T11:52:33.868Z,20.6
2023-01-25T11:53:42.426Z,26.6
2023-01-25T11:54:50.794Z,26.6
2023-01-25T11:56:06.263Z,26.6
2023-01-25T11:57:14.787Z,24.9
2023-01-25T11:58:23.121Z,24.9
2023-01-25T11:59:31.486Z,24.9
2023-01-25T12:00:40.051Z,21.299999
2023-01-25T12:01:48.409Z,21.299999
2023-01-25T12:02:56.768Z,21.299999
2023-01-25T12:04:05.375Z,18.200001
2023-01-25T12:05:21.419Z,18.200001
2023-01-25T12:06:22.048Z,18.200001
2023-01-25T12:07:30.600Z,21.799999
2023-01-25T12:08:38.933Z,21.799999
2023-01-25T12:09:47.282Z,21.799999
2023-01-25T12:10:55.907Z,23.200001
2023-01-25T12:12:04.227Z,23.200001
2023-01-25T12:13:12.635Z,23.200001
2023-01-25T12:14:21.192Z,21.6
2023-01-25T12:15:29.557Z,21.6
2023-01-25T12:16:37.895Z,21.6
2023-01-25T12:17:46.455Z,19.200001
2023-01-25T12:18:54.796Z,19.200001
2023-01-25T12:20:03.154Z,19.200001
2023-01-25T12:21:13.486Z,47.599998
2023-01-25T12:22:20.057Z,47.599998
2023-01-25T12:23:28.406Z,47.599998
2023-01-25T12:24:36.979Z,37.900002
2023-01-25T12:25:45.310Z,37.900002
2023-01-25T12:26:53.679Z,37.900002
2023-01-25T12:28:02.248Z,54.200001
2023-01-25T12:29:10.677Z,54.200001
2023-01-25T12:30:19.006Z,54.200001
2023-01-25T12:31:27.602Z,22.700001
2023-01-25T12:32:35.902Z,22.700001
2023-01-25T12:33:44.337Z,22.700001
2023-01-25T12:34:53.973Z,19.5
2023-01-25T12:36:02.308Z,19.5
2023-01-25T12:37:10.715Z,19.5
2023-01-25T12:38:19.246Z,19.299999
2023-01-25T12:39:27.606Z,19.299999
2023-01-25T12:40:35.968Z,19.299999
2023-01-25T12:41:44.542Z,19.4
2023-01-25T12:42:52.875Z,19.4
2023-01-25T12:44:01.228Z,19.4
2023-01-25T12:45:10.192Z,16.9
2023-01-25T12:46:18.178Z,16.9
2023-01-25T12:47:26.491Z,16.9
2023-01-25T12:48:35.060Z,20.200001
2023-01-25T12:49:43.394Z,20.200001
2023-01-25T12:50:51.739Z,20.200001
2023-01-25T12:52:00.315Z,17.5
2023-01-25T12:53:08.693Z,17.5
2023-01-25T12:54:17.004Z,17.5
2023-01-25T12:55:25.556Z,27.799999
2023-01-25T12:56:33.935Z,27.799999
2023-01-25T12:57:42.261Z,27.799999
2023-01-25T12:58:50.815Z,25.299999
2023-01-25T12:59:59.167Z,25.299999
2023-01-25T13:01:07.553Z,25.299999
2023-01-25T13:02:16.145Z,21.4
2023-01-25T13:03:24.397Z,21.4
2023-01-25T13:04:32.758Z,21.4
2023-01-25T13:05:41.337Z,17
2023-01-25T13:06:49.665Z,17
2023-01-25T13:07:58.002Z,17
2023-01-25T13:09:06.588Z,17.9
2023-01-25T13:10:14.930Z,17.9
2023-01-25T13:11:23.279Z,17.9
2023-01-25T13:12:31.829Z,24.299999
2023-01-25T13:13:40.186Z,24.299999
2023-01-25T13:14:48.530Z,24.299999
2023-01-25T13:15:57.135Z,19.700001
2023-01-25T13:17:10.240Z,19.700001
2023-01-25T13:18:13.798Z,19.700001
2023-01-25T13:19:22.350Z,15.9
2023-01-25T13:20:30.705Z,15.9
2023-01-25T13:21:39.046Z,15.9
2023-01-25T13:22:47.636Z,23.200001
2023-01-25T13:23:56.126Z,23.200001
2023-01-25T13:25:04.413Z,23.200001
2023-01-25T13:26:12.910Z,22.799999
2023-01-25T13:27:21.253Z,22.799999
2023-01-25T13:28:29.603Z,22.799999
2023-01-25T13:29:38.214Z,15.1
2023-01-25T13:30:46.616Z,15.1
2023-01-25T13:31:57.185Z,15.1
2023-01-25T13:33:03.615Z,20.200001
2023-01-25T13:34:11.840Z,20.200001
2023-01-25T13:35:20.206Z,20.200001
2023-01-25T13:36:28.746Z,16.299999
2023-01-25T13:37:37.096Z,16.299999
2023-01-25T13:38:45.453Z,16.299999
2023-01-25T13:39:54.004Z,14.7
2023-01-25T13:41:02.354Z,14.7
2023-01-25T13:42:11.097Z,14.7
2023-01-25T13:43:19.671Z,16.700001
2023-01-25T13:44:28.084Z,16.700001